sensor_id;sensor_type;location;lat;lon;timestamp;pressure;altitude;pressure_sealevel;temperature;humidity
69593;BME280;56796;50.122;14.468;2023-05-28T00:00:44;983.79;;;13.38;62.99
69593;BME280;56796;50.122;14.468;2023-05-28T00:20:10;983.72;;;13.13;64.07
69593;BME280;56796;50.122;14.468;2023-05-28T00:39:34;983.66;;;12.81;65.42
69593;BME280;56796;50.122;14.468;2023-05-28T00:59:01;983.49;;;12.6;66.26
69593;BME280;56796;50.122;14.468;2023-05-28T01:18:26;983.47;;;12.39;66.98
69593;BME280;56796;50.122;14.468;2023-05-28T01:37:52;983.35;;;12.15;68.1
69593;BME280;56796;50.122;14.468;2023-05-28T01:57:19;983.19;;;11.81;69.72
69593;BME280;56796;50.122;14.468;2023-05-28T02:16:45;983.14;;;11.42;71.6
69593;BME280;56796;50.122;14.468;2023-05-28T02:36:09;983.16;;;11.24;72.58
69593;BME280;56796;50.122;14.468;2023-05-28T02:55:35;983.2;;;10.97;74.04
69593;BME280;56796;50.122;14.468;2023-05-28T03:15:04;983.19;;;10.94;74.43
69593;BME280;56796;50.122;14.468;2023-05-28T03:34:28;983.24;;;11.1;74.04
69593;BME280;56796;50.122;14.468;2023-05-28T03:53:55;983.2;;;11.37;73.74
69593;BME280;56796;50.122;14.468;2023-05-28T04:13:23;983.13;;;11.88;72.77
69593;BME280;56796;50.122;14.468;2023-05-28T04:32:51;983.03;;;12.14;72.79
69593;BME280;56796;50.122;14.468;2023-05-28T04:52:19;983.06;;;12.84;72.24
69593;BME280;56796;50.122;14.468;2023-05-28T05:11:47;983.02;;;13.23;68.71
69593;BME280;56796;50.122;14.468;2023-05-28T05:31:15;983.04;;;13.95;66.39
69593;BME280;56796;50.122;14.468;2023-05-28T05:50:46;983.02;;;14.37;66.68
69593;BME280;56796;50.122;14.468;2023-05-28T06:10:14;983.03;;;14.77;66.75
69593;BME280;56796;50.122;14.468;2023-05-28T06:29:42;982.9;;;15.85;63.62
69593;BME280;56796;50.122;14.468;2023-05-28T06:49:18;982.86;;;17.77;57.95
69593;BME280;56796;50.122;14.468;2023-05-28T07:08:53;982.84;;;18.58;54.33
69593;BME280;56796;50.122;14.468;2023-05-28T07:28:19;982.83;;;20.36;51
69593;BME280;56796;50.122;14.468;2023-05-28T07:47:54;982.84;;;21.92;47.86
69593;BME280;56796;50.122;14.468;2023-05-28T08:07:23;982.79;;;21.75;44.38
69593;BME280;56796;50.122;14.468;2023-05-28T08:26:52;982.68;;;22.67;44.5
69593;BME280;56796;50.122;14.468;2023-05-28T08:46:23;982.62;;;23.16;40.86
69593;BME280;56796;50.122;14.468;2023-05-28T09:05:53;982.53;;;24.19;38.33
69593;BME280;56796;50.122;14.468;2023-05-28T09:25:21;982.4;;;24.53;38.36
69593;BME280;56796;50.122;14.468;2023-05-28T09:44:50;982.35;;;25.1;37.62
69593;BME280;56796;50.122;14.468;2023-05-28T10:04:21;982.28;;;25.58;36.43
69593;BME280;56796;50.122;14.468;2023-05-28T10:23:47;982.17;;;25.37;37.69
69593;BME280;56796;50.122;14.468;2023-05-28T11:02:42;981.89;;;26.01;34.91
69593;BME280;56796;50.122;14.468;2023-05-28T11:22:08;982;;;25.4;35.47
69593;BME280;56796;50.122;14.468;2023-05-28T11:41:35;981.76;;;25.24;36.3
69593;BME280;56796;50.122;14.468;2023-05-28T12:01:02;981.72;;;26.15;34.1
69593;BME280;56796;50.122;14.468;2023-05-28T12:20:29;981.58;;;26.14;35.3
69593;BME280;56796;50.122;14.468;2023-05-28T12:40:00;981.47;;;26.14;34.56
69593;BME280;56796;50.122;14.468;2023-05-28T12:59:20;981.3;;;26.25;34.68
69593;BME280;56796;50.122;14.468;2023-05-28T13:18:45;981.21;;;26.31;33.85
69593;BME280;56796;50.122;14.468;2023-05-28T13:38:13;981.12;;;26.48;31.67
69593;BME280;56796;50.122;14.468;2023-05-28T13:57:40;980.9;;;26.22;31.92
69593;BME280;56796;50.122;14.468;2023-05-28T14:17:05;980.71;;;26.22;32.44
69593;BME280;56796;50.122;14.468;2023-05-28T14:36:30;980.42;;;25.68;32.78
69593;BME280;56796;50.122;14.468;2023-05-28T14:55:55;980.38;;;25.01;33.63
69593;BME280;56796;50.122;14.468;2023-05-28T15:15:20;980.36;;;25.02;34.5
69593;BME280;56796;50.122;14.468;2023-05-28T15:34:46;980.28;;;24.65;34.95
69593;BME280;56796;50.122;14.468;2023-05-28T15:54:15;980.15;;;24.14;37.16
69593;BME280;56796;50.122;14.468;2023-05-28T16:13:33;980.04;;;23.91;37.53
69593;BME280;56796;50.122;14.468;2023-05-28T16:32:59;979.96;;;23.41;38.44
69593;BME280;56796;50.122;14.468;2023-05-28T16:52:24;979.93;;;22.89;39.86
69593;BME280;56796;50.122;14.468;2023-05-28T17:11:50;979.96;;;22.31;41.36
69593;BME280;56796;50.122;14.468;2023-05-28T17:31:15;979.96;;;22.09;42.14
69593;BME280;56796;50.122;14.468;2023-05-28T17:50:41;980.01;;;21.68;43.17
69593;BME280;56796;50.122;14.468;2023-05-28T18:10:07;979.98;;;21.31;44.3
69593;BME280;56796;50.122;14.468;2023-05-28T18:29:35;980.05;;;20.91;45.35
69593;BME280;56796;50.122;14.468;2023-05-28T18:48:53;980.16;;;20.49;48.09
69593;BME280;56796;50.122;14.468;2023-05-28T19:08:17;980.38;;;19.54;50.45
69593;BME280;56796;50.122;14.468;2023-05-28T19:27:42;980.56;;;18.93;52.43
69593;BME280;56796;50.122;14.468;2023-05-28T19:47:07;980.72;;;18.52;53.94
69593;BME280;56796;50.122;14.468;2023-05-28T20:06:31;980.79;;;18.26;54.59
69593;BME280;56796;50.122;14.468;2023-05-28T20:25:57;980.93;;;18.09;54.66
69593;BME280;56796;50.122;14.468;2023-05-28T20:45:23;980.98;;;17.7;55.56
69593;BME280;56796;50.122;14.468;2023-05-28T21:04:48;981.12;;;17.49;55.28
69593;BME280;56796;50.122;14.468;2023-05-28T21:24:14;981.28;;;17.28;53.84
69593;BME280;56796;50.122;14.468;2023-05-28T21:43:41;981.27;;;16.86;54.95
69593;BME280;56796;50.122;14.468;2023-05-28T22:03:07;981.4;;;16.64;55.25
69593;BME280;56796;50.122;14.468;2023-05-28T22:22:32;981.35;;;16.16;57.05
69593;BME280;56796;50.122;14.468;2023-05-28T22:41:59;981.26;;;15.69;58.29
69593;BME280;56796;50.122;14.468;2023-05-28T23:01:23;981.33;;;15.48;58.64
69593;BME280;56796;50.122;14.468;2023-05-28T23:20:49;981.36;;;15.11;59.91
69593;BME280;56796;50.122;14.468;2023-05-28T23:40:16;981.45;;;14.96;60.04
69593;BME280;56796;50.122;14.468;2023-05-28T23:59:42;981.21;;;14.75;61.12
